createdAt,value
2023-05-10T00:00:35.977Z,21.35
2023-05-10T00:03:05.295Z,20.98
2023-05-10T00:05:32.368Z,21.18
2023-05-10T00:07:59.793Z,21.36
2023-05-10T00:10:26.861Z,21.42
2023-05-10T00:12:53.451Z,21.69
2023-05-10T00:15:20.321Z,21.82
2023-05-10T00:17:46.901Z,22.04
2023-05-10T00:20:13.826Z,22.08
2023-05-10T00:22:41.006Z,22.04
2023-05-10T00:25:08.596Z,22.06
2023-05-10T00:27:36.176Z,22.22
2023-05-10T00:30:02.892Z,22.26
2023-05-10T00:32:30.125Z,22.04
2023-05-10T00:34:56.771Z,21.56
2023-05-10T00:37:23.372Z,21.54
2023-05-10T00:39:50.173Z,21.75
2023-05-10T00:42:16.744Z,21.91
2023-05-10T00:44:44.167Z,21.81
2023-05-10T00:47:12.162Z,21.79
2023-05-10T00:49:38.774Z,21.47
2023-05-10T00:52:06.384Z,21.71
2023-05-10T00:54:33.212Z,22.03
2023-05-10T00:56:59.803Z,22.28
2023-05-10T01:00:26.877Z,18.54
2023-05-10T01:02:54.866Z,20.47
2023-05-10T01:05:22.045Z,20.82
2023-05-10T01:07:49.348Z,20.96
2023-05-10T01:10:16.540Z,21.10
2023-05-10T01:12:44.435Z,21.30
2023-05-10T01:15:12.034Z,21.50
2023-05-10T01:17:39.621Z,21.37
2023-05-10T01:20:09.207Z,21.33
2023-05-10T01:22:44.027Z,21.54
2023-05-10T01:25:34.230Z,21.52
2023-05-10T01:28:48.837Z,21.55
2023-05-10T01:31:50.064Z,21.50
2023-05-10T01:34:17.692Z,21.86
2023-05-10T01:37:00.220Z,21.85
2023-05-10T01:39:32.959Z,21.89
2023-05-10T01:42:09.862Z,21.88
2023-05-10T01:44:42.638Z,21.87
2023-05-10T01:47:25.569Z,22.03
2023-05-10T01:49:54.633Z,22.39
2023-05-10T01:52:26.142Z,22.53
2023-05-10T01:54:56.788Z,22.59
2023-05-10T01:57:24.977Z,22.55
2023-05-10T01:59:51.779Z,22.40
2023-05-10T02:02:21.966Z,22.47
2023-05-10T02:04:48.891Z,22.29
2023-05-10T02:07:15.855Z,22.60
2023-05-10T02:09:45.282Z,22.60
2023-05-10T02:12:13.680Z,22.45
2023-05-10T02:14:41.614Z,22.29
2023-05-10T02:17:08.861Z,21.95
2023-05-10T02:19:35.639Z,22.05
2023-05-10T02:22:02.973Z,22.50
2023-05-10T02:24:29.749Z,22.52
2023-05-10T02:26:59.527Z,22.37
2023-05-10T02:29:26.280Z,22.26
2023-05-10T02:31:55.183Z,22.33
2023-05-10T02:34:23.299Z,22.36
2023-05-10T02:36:50.164Z,22.41
2023-05-10T02:39:16.949Z,22.28
2023-05-10T02:41:45.889Z,22.21
2023-05-10T02:44:12.637Z,22.33
2023-05-10T02:46:40.444Z,22.13
2023-05-10T02:49:07.756Z,21.82
2023-05-10T02:51:37.260Z,22.02
2023-05-10T02:54:09.108Z,22.22
2023-05-10T02:56:37.274Z,22.38
2023-05-10T02:59:04.056Z,22.44
2023-05-10T03:01:30.780Z,22.49
2023-05-10T03:03:58.361Z,22.56
2023-05-10T03:06:25.288Z,22.91
2023-05-10T03:08:51.995Z,22.77
2023-05-10T03:11:24.689Z,22.35
2023-05-10T03:14:06.974Z,21.94
2023-05-10T03:16:41.270Z,21.98
2023-05-10T03:19:52.035Z,22.27
2023-05-10T03:22:23.910Z,22.20
2023-05-10T03:24:51.312Z,22.73
2023-05-10T03:27:18.457Z,23.55
2023-05-10T03:29:47.518Z,23.85
2023-05-10T03:32:14.726Z,24.24
2023-05-10T03:34:44.930Z,24.56
2023-05-10T03:37:11.821Z,24.37
2023-05-10T03:39:39.129Z,24.46
2023-05-10T03:42:07.105Z,24.56
2023-05-10T03:44:34.432Z,25.15
2023-05-10T03:47:01.193Z,25.48
2023-05-10T03:49:29.391Z,25.68
2023-05-10T03:51:56.099Z,25.93
2023-05-10T03:54:24.118Z,25.83
2023-05-10T03:56:50.840Z,25.85
2023-05-10T03:59:18.093Z,25.73
2023-05-10T04:01:47.395Z,25.53
2023-05-10T04:04:14.276Z,25.47
2023-05-10T04:06:42.187Z,25.46
2023-05-10T04:09:09.503Z,25.53
2023-05-10T04:11:36.227Z,25.80
2023-05-10T04:14:04.096Z,25.75
2023-05-10T04:16:30.895Z,25.58
2023-05-10T04:18:59.827Z,25.82
2023-05-10T04:21:26.620Z,26.13
2023-05-10T04:23:54.475Z,26.52
2023-05-10T04:26:23.151Z,27.19
2023-05-10T04:28:49.902Z,28.01
2023-05-10T04:31:18.774Z,28.44
2023-05-10T04:33:45.853Z,28.37
2023-05-10T04:36:15.089Z,28.68
2023-05-10T04:38:42.062Z,29.25
2023-05-10T04:41:09.399Z,29.40
2023-05-10T04:43:37.715Z,29.00
2023-05-10T04:46:07.342Z,28.69
2023-05-10T04:48:37.003Z,28.03
2023-05-10T04:51:05.082Z,27.79
2023-05-10T04:53:32.630Z,28.15
2023-05-10T04:55:59.329Z,28.32
2023-05-10T04:58:26.230Z,28.43
2023-05-10T05:00:53.002Z,28.21
2023-05-10T05:03:19.779Z,27.96
2023-05-10T05:05:46.661Z,27.85
2023-05-10T05:08:14.231Z,27.27
2023-05-10T05:10:41.022Z,27.07
2023-05-10T05:13:07.818Z,26.97
2023-05-10T05:15:35.029Z,26.97
2023-05-10T05:18:01.761Z,26.86
2023-05-10T05:20:28.542Z,26.48
2023-05-10T05:22:55.784Z,27.05
2023-05-10T05:25:22.550Z,27.46
2023-05-10T05:27:49.668Z,27.73
2023-05-10T05:30:17.349Z,27.91
2023-05-10T05:32:44.340Z,27.89
2023-05-10T05:35:11.240Z,28.33
2023-05-10T05:37:38.305Z,29.01
2023-05-10T05:40:05.675Z,29.57
2023-05-10T05:42:35.312Z,30.14
2023-05-10T05:45:02.451Z,30.02
2023-05-10T05:47:29.342Z,29.89
2023-05-10T05:49:56.408Z,29.99
2023-05-10T05:52:23.132Z,30.08
2023-05-10T05:54:52.043Z,30.54
2023-05-10T05:57:18.715Z,30.74
2023-05-10T05:59:45.486Z,30.56
2023-05-10T06:02:12.245Z,29.98
2023-05-10T06:04:39.323Z,29.37
2023-05-10T06:07:07.450Z,28.91
2023-05-10T06:09:34.155Z,28.52
2023-05-10T06:12:01.149Z,28.67
2023-05-10T06:14:28.530Z,28.60
2023-05-10T06:16:55.397Z,27.89
2023-05-10T06:19:22.511Z,28.09
2023-05-10T06:21:50.388Z,28.95
2023-05-10T06:24:18.035Z,29.12
2023-05-10T06:26:44.850Z,28.99
2023-05-10T06:29:11.726Z,28.76
2023-05-10T06:31:38.514Z,28.47
2023-05-10T06:34:05.302Z,28.09
2023-05-10T06:36:32.315Z,28.37
2023-05-10T06:38:59.013Z,28.85
2023-05-10T06:41:27.164Z,29.08
2023-05-10T06:43:53.894Z,29.29
2023-05-10T06:46:20.774Z,29.01
2023-05-10T06:48:47.656Z,29.49
2023-05-10T06:51:14.375Z,29.98
2023-05-10T06:53:41.167Z,30.14
2023-05-10T06:56:08.121Z,29.94
2023-05-10T06:58:34.851Z,30.54
2023-05-10T07:01:08.103Z,31.15
2023-05-10T07:03:35.170Z,31.91
2023-05-10T07:06:05.296Z,32.02
2023-05-10T07:08:32.689Z,32.01
2023-05-10T07:11:08.076Z,32.26
2023-05-10T07:13:35.131Z,32.67
2023-05-10T07:16:03.060Z,33.01
2023-05-10T07:18:30.073Z,33.24
2023-05-10T07:20:57.995Z,33.47
2023-05-10T07:23:24.769Z,32.99
2023-05-10T07:25:53.168Z,33.28
2023-05-10T07:28:20.107Z,33.71
2023-05-10T07:30:46.864Z,33.97
2023-05-10T07:33:14.615Z,34.10
2023-05-10T07:35:41.566Z,34.01
2023-05-10T07:38:08.962Z,34.02
2023-05-10T07:40:35.989Z,33.96
2023-05-10T07:43:03.350Z,33.67
2023-05-10T07:45:30.406Z,33.17
2023-05-10T07:47:57.260Z,32.73
2023-05-10T07:50:24.067Z,32.54
2023-05-10T07:52:51.052Z,32.24
2023-05-10T07:55:19.377Z,32.07
2023-05-10T07:57:46.091Z,32.19
2023-05-10T08:00:14.426Z,32.10
2023-05-10T08:02:41.963Z,32.14
2023-05-10T08:05:09.109Z,32.23
2023-05-10T08:07:36.164Z,31.81
2023-05-10T08:10:03.938Z,31.77
2023-05-10T08:12:31.585Z,32.45
2023-05-10T08:14:58.738Z,32.32
2023-05-10T08:17:25.853Z,32.00
2023-05-10T08:19:52.711Z,32.69
2023-05-10T08:22:19.439Z,32.45
2023-05-10T08:24:46.333Z,32.31
2023-05-10T08:27:13.055Z,32.50
2023-05-10T08:29:49.473Z,32.51
2023-05-10T08:32:17.273Z,32.38
2023-05-10T08:34:44.085Z,33.18
2023-05-10T08:37:14.203Z,33.37
2023-05-10T08:39:41.395Z,33.57
2023-05-10T08:42:08.131Z,33.44
2023-05-10T08:44:36.615Z,32.95
2023-05-10T08:47:05.314Z,33.37
2023-05-10T08:49:32.584Z,33.65
2023-05-10T08:51:59.311Z,33.96
2023-05-10T08:54:26.091Z,33.57
2023-05-10T08:56:52.839Z,33.37
2023-05-10T08:59:19.834Z,32.94
2023-05-10T09:01:46.826Z,32.98
2023-05-10T09:04:13.736Z,33.16
2023-05-10T09:06:40.505Z,32.91
2023-05-10T09:09:07.474Z,33.12
2023-05-10T09:11:34.252Z,33.47
2023-05-10T09:14:00.989Z,33.35
2023-05-10T09:16:27.822Z,33.18
2023-05-10T09:18:54.588Z,33.42
2023-05-10T09:21:21.823Z,33.57
2023-05-10T09:23:51.187Z,33.59
2023-05-10T09:26:18.466Z,33.05
2023-05-10T09:28:51.493Z,33.40
2023-05-10T09:31:18.508Z,34.10
2023-05-10T09:33:47.037Z,34.01
2023-05-10T09:36:14.260Z,33.90
2023-05-10T09:38:52.753Z,33.93
2023-05-10T09:41:21.164Z,33.78
2023-05-10T09:43:48.179Z,33.73
2023-05-10T09:46:17.806Z,33.56
2023-05-10T09:48:46.675Z,33.66
2023-05-10T09:51:26.624Z,33.33
2023-05-10T09:54:15.857Z,32.83
2023-05-10T09:56:43.160Z,32.30
2023-05-10T09:59:13.154Z,31.94
2023-05-10T10:01:40.204Z,31.80
2023-05-10T10:04:08.279Z,31.71
2023-05-10T10:06:41.285Z,31.61
2023-05-10T10:09:08.141Z,31.49
2023-05-10T10:11:38.834Z,31.75
2023-05-10T10:14:06.266Z,31.32
2023-05-10T10:16:33.252Z,31.27
2023-05-10T10:19:00.177Z,31.41
2023-05-10T10:21:27.166Z,31.63
2023-05-10T10:23:54.301Z,31.59
2023-05-10T10:26:22.093Z,31.44
2023-05-10T10:29:09.665Z,31.84
2023-05-10T10:31:59.679Z,31.98
2023-05-10T10:34:30.173Z,32.12
2023-05-10T10:36:57.765Z,32.33
2023-05-10T10:39:28.040Z,32.30
2023-05-10T10:41:55.736Z,32.27
2023-05-10T10:44:38.990Z,32.22
2023-05-10T10:47:25.630Z,32.42
2023-05-10T10:50:17.348Z,32.22
2023-05-10T10:52:44.570Z,32.29
2023-05-10T10:55:26.052Z,32.31
2023-05-10T10:58:03.192Z,32.79
2023-05-10T11:00:32.177Z,32.83
2023-05-10T11:03:10.208Z,32.55
2023-05-10T11:05:43.702Z,31.82
2023-05-10T11:08:11.697Z,31.82
2023-05-10T11:10:38.837Z,32.10
2023-05-10T11:13:11.693Z,32.41
2023-05-10T11:15:41.677Z,32.60
2023-05-10T11:18:28.440Z,32.84
2023-05-10T11:21:01.036Z,33.01
2023-05-10T11:23:32.230Z,33.27
2023-05-10T11:26:00.410Z,33.48
2023-05-10T11:28:27.264Z,33.36
2023-05-10T11:30:54.042Z,33.26
2023-05-10T11:33:21.018Z,33.30
2023-05-10T11:35:47.847Z,33.36
2023-05-10T11:38:14.829Z,33.14
2023-05-10T11:40:41.825Z,32.69
2023-05-10T11:43:09.750Z,32.45
2023-05-10T11:45:38.258Z,32.40
2023-05-10T11:48:05.946Z,32.17
2023-05-10T11:50:33.640Z,31.90
2023-05-10T11:53:00.384Z,31.78
2023-05-10T11:55:27.123Z,31.42
2023-05-10T11:57:54.934Z,31.24
2023-05-10T12:00:22.156Z,31.18
2023-05-10T12:02:50.057Z,30.82
2023-05-10T12:05:17.030Z,30.02
2023-05-10T12:07:43.987Z,29.74
2023-05-10T12:10:13.396Z,29.40
2023-05-10T12:12:44.438Z,29.08
2023-05-10T12:15:21.407Z,29.51
2023-05-10T12:17:48.679Z,29.59
2023-05-10T12:20:19.801Z,29.76
2023-05-10T12:23:00.366Z,29.65
2023-05-10T12:25:31.293Z,29.62
2023-05-10T12:27:59.166Z,29.41
2023-05-10T12:30:33.058Z,29.50
2023-05-10T12:33:08.331Z,29.74
2023-05-10T12:35:45.715Z,29.93
2023-05-10T12:38:30.870Z,30.16
2023-05-10T12:40:59.380Z,30.04
2023-05-10T12:43:26.239Z,30.27
2023-05-10T12:45:57.091Z,30.44
2023-05-10T12:48:24.069Z,30.18
2023-05-10T12:50:51.117Z,30.34
2023-05-10T12:53:18.294Z,30.57
2023-05-10T12:55:45.469Z,30.58
2023-05-10T12:58:17.998Z,30.81
2023-05-10T13:00:54.966Z,30.35
2023-05-10T13:03:21.976Z,30.51
2023-05-10T13:05:49.188Z,30.71
2023-05-10T13:08:16.368Z,30.92
2023-05-10T13:10:43.315Z,31.00
2023-05-10T13:13:10.879Z,31.32
2023-05-10T13:17:02.018Z,28.87
2023-05-10T13:19:28.844Z,30.85
2023-05-10T13:21:55.827Z,31.12
2023-05-10T13:24:22.967Z,31.12
2023-05-10T13:26:49.840Z,31.46
2023-05-10T13:29:19.151Z,31.49
2023-05-10T13:31:46.059Z,31.57
2023-05-10T13:34:13.087Z,31.37
2023-05-10T13:36:40.387Z,31.40
2023-05-10T13:39:07.327Z,31.47
2023-05-10T13:41:34.233Z,31.68
2023-05-10T13:44:01.100Z,32.13
2023-05-10T13:46:27.958Z,32.32
2023-05-10T13:48:54.832Z,32.24
2023-05-10T13:51:21.634Z,32.25
2023-05-10T13:53:51.313Z,31.99
2023-05-10T13:56:37.004Z,31.78
2023-05-10T13:59:03.954Z,31.93
2023-05-10T14:01:30.787Z,31.91
2023-05-10T14:03:57.578Z,31.79
2023-05-10T14:06:24.500Z,31.44
2023-05-10T14:08:51.637Z,30.83
2023-05-10T14:11:18.573Z,30.64
2023-05-10T14:13:45.622Z,30.77
2023-05-10T14:16:12.764Z,31.02
2023-05-10T14:18:39.646Z,31.12
2023-05-10T14:21:06.531Z,30.82
2023-05-10T14:23:33.334Z,30.94
2023-05-10T14:26:00.217Z,30.58
2023-05-10T14:28:28.708Z,30.41
2023-05-10T14:30:56.622Z,30.32
2023-05-10T14:33:23.423Z,30.38
2023-05-10T14:35:50.262Z,30.36
2023-05-10T14:38:17.091Z,30.10
2023-05-10T14:40:44.097Z,29.79
2023-05-10T14:43:10.893Z,30.17
2023-05-10T14:45:37.774Z,30.20
2023-05-10T14:48:08.318Z,30.07
2023-05-10T14:50:36.924Z,29.85
2023-05-10T14:53:36.002Z,29.71
2023-05-10T14:56:03.987Z,29.38
2023-05-10T14:58:34.009Z,29.06
2023-05-10T15:01:01.987Z,28.78
2023-05-10T15:03:29.632Z,28.76
2023-05-10T15:05:58.670Z,28.79
2023-05-10T15:08:28.856Z,28.54
2023-05-10T15:10:57.077Z,28.51
2023-05-10T15:13:24.038Z,28.71
2023-05-10T15:15:51.310Z,29.11
2023-05-10T15:18:19.023Z,29.17
2023-05-10T15:20:46.054Z,28.80
2023-05-10T15:23:12.799Z,28.62
2023-05-10T15:25:39.767Z,28.69
2023-05-10T15:28:06.615Z,28.80
2023-05-10T15:30:33.508Z,28.66
2023-05-10T15:33:00.397Z,28.87
2023-05-10T15:35:27.773Z,28.69
2023-05-10T15:37:54.520Z,28.49
2023-05-10T15:40:21.328Z,28.37
2023-05-10T15:42:48.145Z,28.69
2023-05-10T15:45:18.234Z,28.62
2023-05-10T15:47:45.794Z,28.59
2023-05-10T15:50:12.997Z,28.91
2023-05-10T15:52:39.859Z,28.74
2023-05-10T15:55:13.316Z,28.21
2023-05-10T15:57:41.456Z,28.21
2023-05-10T16:00:09.611Z,28.00
2023-05-10T16:02:40.585Z,28.08
2023-05-10T16:05:08.520Z,27.97
2023-05-10T16:07:35.530Z,27.70
2023-05-10T16:10:06.624Z,27.85
2023-05-10T16:12:33.434Z,28.17
2023-05-10T16:15:00.271Z,28.12
2023-05-10T16:17:27.251Z,28.24
2023-05-10T16:19:54.082Z,28.13
2023-05-10T16:22:22.495Z,28.24
2023-05-10T16:24:49.943Z,28.38
2023-05-10T16:27:17.595Z,28.13
2023-05-10T16:29:44.364Z,28.17
2023-05-10T16:32:11.574Z,27.92
2023-05-10T16:34:38.313Z,27.80
2023-05-10T16:37:05.131Z,27.84
2023-05-10T16:39:32.178Z,27.81
2023-05-10T16:41:59.082Z,27.84
2023-05-10T16:44:26.074Z,27.43
2023-05-10T16:46:53.533Z,27.48
2023-05-10T16:49:20.520Z,27.68
2023-05-10T16:51:47.480Z,27.87
2023-05-10T16:54:14.358Z,27.84
2023-05-10T16:56:41.643Z,27.52
2023-05-10T16:59:08.662Z,27.60
2023-05-10T17:01:35.674Z,27.60
2023-05-10T17:04:03.161Z,27.58
2023-05-10T17:06:30.011Z,27.48
2023-05-10T17:08:57.363Z,27.31
2023-05-10T17:11:24.154Z,27.06
2023-05-10T17:13:52.531Z,26.73
2023-05-10T17:16:21.008Z,26.80
2023-05-10T17:18:49.084Z,27.00
2023-05-10T17:21:16.737Z,26.97
2023-05-10T17:23:43.510Z,26.80
2023-05-10T17:26:10.663Z,26.50
2023-05-10T17:28:37.454Z,26.51
2023-05-10T17:31:04.376Z,26.45
2023-05-10T17:33:31.203Z,26.25
2023-05-10T17:35:58.280Z,26.25
2023-05-10T17:38:24.998Z,25.89
2023-05-10T17:40:51.771Z,25.66
2023-05-10T17:43:18.566Z,25.65
2023-05-10T17:45:48.061Z,25.67
2023-05-10T17:48:14.935Z,25.67
2023-05-10T17:50:43.451Z,25.72
2023-05-10T17:53:10.565Z,25.52
2023-05-10T17:55:40.381Z,25.38
2023-05-10T17:58:07.164Z,25.23
2023-05-10T18:00:33.888Z,25.10
2023-05-10T18:03:01.477Z,24.96
2023-05-10T18:05:28.590Z,24.64
2023-05-10T18:07:56.471Z,24.40
2023-05-10T18:10:24.636Z,24.13
2023-05-10T18:12:52.642Z,24.15
2023-05-10T18:15:19.623Z,24.33
2023-05-10T18:17:46.991Z,24.12
2023-05-10T18:20:13.917Z,23.87
2023-05-10T18:22:40.622Z,23.73
2023-05-10T18:25:08.071Z,23.65
2023-05-10T18:27:35.081Z,23.48
2023-05-10T18:30:01.848Z,23.55
2023-05-10T18:32:28.713Z,23.36
2023-05-10T18:34:56.756Z,23.00
2023-05-10T18:37:23.624Z,22.74
2023-05-10T18:39:50.840Z,22.74
2023-05-10T18:42:17.673Z,22.80
2023-05-10T18:44:44.397Z,22.77
2023-05-10T18:47:11.183Z,22.47
2023-05-10T18:49:38.086Z,22.33
2023-05-10T18:52:04.966Z,22.55
2023-05-10T18:54:31.807Z,22.62
2023-05-10T18:56:59.029Z,22.88
2023-05-10T18:59:27.807Z,22.95
2023-05-10T19:01:57.008Z,22.64
2023-05-10T19:04:24.262Z,22.86
2023-05-10T19:06:51.131Z,22.53
2023-05-10T19:09:20.247Z,22.46
2023-05-10T19:11:47.145Z,22.56
2023-05-10T19:14:13.872Z,22.54
2023-05-10T19:16:40.726Z,22.48
2023-05-10T19:19:10.594Z,22.45
2023-05-10T19:21:40.026Z,22.40
2023-05-10T19:24:06.964Z,22.37
2023-05-10T19:26:35.828Z,21.99
2023-05-10T19:29:03.686Z,22.08
2023-05-10T19:31:30.458Z,22.26
2023-05-10T19:34:00.020Z,22.26
2023-05-10T19:36:27.602Z,22.16
2023-05-10T19:38:54.424Z,22.08
2023-05-10T19:41:22.612Z,21.77
2023-05-10T19:43:49.365Z,21.85
2023-05-10T19:46:17.936Z,21.68
2023-05-10T19:48:51.508Z,21.31
2023-05-10T19:51:18.235Z,21.21
2023-05-10T19:53:45.128Z,21.07
2023-05-10T19:56:14.815Z,21.14
2023-05-10T19:58:41.542Z,21.18
2023-05-10T20:01:08.626Z,20.95
2023-05-10T20:03:36.096Z,20.66
2023-05-10T20:06:04.062Z,20.49
2023-05-10T20:08:31.143Z,20.72
2023-05-10T20:10:59.511Z,20.78
2023-05-10T20:13:26.276Z,20.81
2023-05-10T20:15:57.223Z,20.87
2023-05-10T20:18:24.063Z,20.85
2023-05-10T20:20:58.846Z,20.84
2023-05-10T20:23:26.756Z,20.45
2023-05-10T20:25:54.815Z,20.38
2023-05-10T20:28:23.040Z,20.61
2023-05-10T20:30:53.987Z,20.49
2023-05-10T20:33:21.176Z,20.55
2023-05-10T20:35:48.056Z,20.41
2023-05-10T20:38:14.780Z,20.44
2023-05-10T20:40:41.708Z,20.16
2023-05-10T20:43:08.414Z,20.14
2023-05-10T20:45:37.593Z,20.07
2023-05-10T20:48:04.856Z,20.06
2023-05-10T20:50:31.690Z,19.92
2023-05-10T20:53:00.603Z,19.78
2023-05-10T20:55:28.066Z,19.81
2023-05-10T20:57:54.791Z,19.84
2023-05-10T21:00:21.628Z,19.75
2023-05-10T21:02:48.519Z,19.44
2023-05-10T21:05:15.530Z,19.20
2023-05-10T21:07:42.308Z,18.95
2023-05-10T21:10:11.170Z,18.83
2023-05-10T21:12:37.933Z,18.79
2023-05-10T21:15:05.669Z,19.21
2023-05-10T21:17:32.463Z,19.28
2023-05-10T21:19:59.320Z,19.11
2023-05-10T21:22:26.643Z,19.19
2023-05-10T21:24:53.487Z,18.96
2023-05-10T21:27:20.632Z,18.79
2023-05-10T21:29:47.430Z,19.30
2023-05-10T21:32:14.986Z,19.39
2023-05-10T21:34:41.982Z,19.39
2023-05-10T21:37:08.920Z,19.54
2023-05-10T21:39:36.005Z,19.21
2023-05-10T21:42:03.900Z,19.23
2023-05-10T21:44:31.948Z,19.09
2023-05-10T21:46:58.963Z,18.75
2023-05-10T21:49:26.047Z,18.78
2023-05-10T21:51:52.825Z,18.89
2023-05-10T21:54:19.604Z,18.87
2023-05-10T21:56:46.639Z,18.90
2023-05-10T21:59:13.600Z,18.80
2023-05-10T22:01:40.511Z,18.80
2023-05-10T22:04:07.424Z,19.02
2023-05-10T22:06:34.226Z,19.06
2023-05-10T22:09:00.959Z,19.13
2023-05-10T22:11:27.700Z,18.98
2023-05-10T22:13:54.402Z,18.81
2023-05-10T22:16:21.170Z,18.76
2023-05-10T22:18:47.995Z,18.72
2023-05-10T22:21:14.712Z,18.63
2023-05-10T22:23:41.816Z,18.49
2023-05-10T22:26:08.552Z,18.44
2023-05-10T22:28:35.275Z,18.70
2023-05-10T22:31:01.972Z,18.84
2023-05-10T22:33:29.070Z,18.89
2023-05-10T22:35:55.923Z,18.90
2023-05-10T22:38:22.664Z,18.61
2023-05-10T22:40:49.508Z,18.81
2023-05-10T22:43:17.026Z,18.77
2023-05-10T22:45:43.898Z,18.79
2023-05-10T22:48:10.661Z,18.57
2023-05-10T22:50:37.785Z,18.29
2023-05-10T22:53:04.644Z,18.23
2023-05-10T22:55:31.358Z,18.37
2023-05-10T22:57:58.160Z,18.17
2023-05-10T23:00:24.879Z,17.87
2023-05-10T23:02:51.627Z,17.83
2023-05-10T23:05:18.638Z,17.79
2023-05-10T23:07:48.352Z,17.59
2023-05-10T23:10:15.205Z,17.51
2023-05-10T23:12:42.062Z,17.58
2023-05-10T23:15:09.911Z,17.72
2023-05-10T23:17:39.761Z,17.72
2023-05-10T23:20:07.538Z,17.65
2023-05-10T23:22:35.007Z,17.75
2023-05-10T23:25:01.880Z,17.81
2023-05-10T23:27:30.341Z,17.94
2023-05-10T23:29:57.779Z,17.88
2023-05-10T23:32:24.604Z,17.94
2023-05-10T23:34:53.295Z,17.74
2023-05-10T23:37:20.018Z,17.83
2023-05-10T23:39:46.803Z,17.87
2023-05-10T23:42:13.531Z,18.16
2023-05-10T23:44:40.291Z,17.94
2023-05-10T23:47:07.152Z,17.90
2023-05-10T23:49:34.129Z,17.63
2023-05-10T23:52:00.859Z,17.57
2023-05-10T23:54:27.606Z,17.67
2023-05-10T23:56:54.345Z,17.68
2023-05-10T23:59:21.066Z,17.59
